createdAt,value
2022-08-22T00:01:02.364Z,10.88
2022-08-22T00:02:53.684Z,8.43
2022-08-22T00:03:00.472Z,9.32
2022-08-22T00:03:01.921Z,8.55
2022-08-22T00:03:46.440Z,13.85
2022-08-22T00:06:31.248Z,14.32
2022-08-22T00:10:03.405Z,10.73
2022-08-22T00:13:04.419Z,10.80
2022-08-22T00:15:52.487Z,12.25
2022-08-22T00:18:34.697Z,10.63
2022-08-22T00:21:34.789Z,11.57
2022-08-22T00:24:23.213Z,10.95
2022-08-22T00:27:16.981Z,12.90
2022-08-22T00:30:04.282Z,9.13
2022-08-22T00:32:50.036Z,11.50
2022-08-22T00:36:10.230Z,13.57
2022-08-22T00:38:50.854Z,9.73
2022-08-22T00:41:54.979Z,14.55
2022-08-22T00:44:39.667Z,14.27
2022-08-22T00:47:36.370Z,12.95
2022-08-22T00:50:42.014Z,10.55
2022-08-22T00:53:36.498Z,12.18
2022-08-22T00:56:27.622Z,12.25
2022-08-22T00:59:23.468Z,15.60
2022-08-22T01:02:11.089Z,13.35
2022-08-22T01:04:52.117Z,10.43
2022-08-22T01:07:44.557Z,14.45
2022-08-22T01:10:35.917Z,14.05
2022-08-22T01:13:34.525Z,11.60
2022-08-22T01:16:35.046Z,12.55
2022-08-22T01:19:23.081Z,12.40
2022-08-22T01:22:48.963Z,12.88
2022-08-22T01:26:19.503Z,13.70
2022-08-22T01:29:28.213Z,12.45
2022-08-22T01:32:31.010Z,10.90
2022-08-22T01:35:50.458Z,12.95
2022-08-22T01:38:41.582Z,12.38
2022-08-22T01:41:35.584Z,12.52
2022-08-22T01:44:12.113Z,11.23
2022-08-22T01:47:11.963Z,15.13
2022-08-22T01:49:51.791Z,14.30
2022-08-22T01:52:50.807Z,12.48
2022-08-22T01:55:34.673Z,10.95
2022-08-22T01:58:15.672Z,14.00
2022-08-22T02:01:22.090Z,11.15
2022-08-22T02:04:28.724Z,10.40
2022-08-22T02:07:53.394Z,7.82
2022-08-22T02:11:07.151Z,10.45
2022-08-22T02:13:54.974Z,12.45
2022-08-22T02:16:30.793Z,9.35
2022-08-22T02:19:15.792Z,11.50
2022-08-22T02:22:50.410Z,8.23
2022-08-22T02:28:28.121Z,12.05
2022-08-22T02:31:17.047Z,11.45
2022-08-22T02:33:46.799Z,12.73
2022-08-22T02:36:25.081Z,10.07
2022-08-22T02:39:32.321Z,13.25
2022-08-22T02:42:28.403Z,10.45
2022-08-22T02:45:20.795Z,11.70
2022-08-22T02:48:11.556Z,9.25
2022-08-22T02:50:51.605Z,6.80
2022-08-22T02:53:33.652Z,9.88
2022-08-22T02:56:12.455Z,12.23
2022-08-22T02:58:45.193Z,8.63
2022-08-22T03:01:29.117Z,11.20
2022-08-22T03:04:18.024Z,9.85
2022-08-22T03:07:14.643Z,7.65
2022-08-22T03:10:10.204Z,13.00
2022-08-22T03:13:09.631Z,11.07
2022-08-22T03:16:10.858Z,10.55
2022-08-22T03:19:31.626Z,11.90
2022-08-22T03:22:08.395Z,8.65
2022-08-22T03:25:02.501Z,15.75
2022-08-22T03:27:42.272Z,12.25
2022-08-22T03:30:30.945Z,14.63
2022-08-22T03:33:27.641Z,14.48
2022-08-22T03:36:17.620Z,13.98
2022-08-22T03:39:17.565Z,7.60
2022-08-22T03:42:09.481Z,13.57
2022-08-22T03:45:14.045Z,10.30
2022-08-22T03:48:17.644Z,13.68
2022-08-22T03:51:15.433Z,12.48
2022-08-22T03:54:19.254Z,13.98
2022-08-22T03:57:06.120Z,14.23
2022-08-22T03:59:54.139Z,13.90
2022-08-22T04:03:07.311Z,14.18
2022-08-22T04:06:25.767Z,11.80
2022-08-22T04:09:32.773Z,12.63
2022-08-22T04:12:27.146Z,14.52
2022-08-22T04:15:26.577Z,19.50
2022-08-22T04:18:14.569Z,12.50
2022-08-22T04:21:02.269Z,11.52
2022-08-22T04:24:15.447Z,13.25
2022-08-22T04:26:50.799Z,10.32
2022-08-22T04:29:55.261Z,12.70
2022-08-22T04:32:25.352Z,10.90
2022-08-22T04:35:11.984Z,11.73
2022-08-22T04:37:52.362Z,14.57
2022-08-22T04:40:27.593Z,18.70
2022-08-22T04:43:09.052Z,13.55
2022-08-22T04:45:46.189Z,10.48
2022-08-22T04:48:29.602Z,12.13
2022-08-22T04:51:15.560Z,12.23
2022-08-22T04:54:39.894Z,16.65
2022-08-22T04:57:31.134Z,14.48
2022-08-22T05:00:05.997Z,15.60
2022-08-22T05:02:38.874Z,11.85
2022-08-22T05:05:16.558Z,11.43
2022-08-22T05:07:55.437Z,15.68
2022-08-22T05:10:42.106Z,12.70
2022-08-22T05:13:21.609Z,13.85
2022-08-22T05:15:54.730Z,14.30
2022-08-22T05:18:40.310Z,17.90
2022-08-22T05:21:13.932Z,18.30
2022-08-22T05:24:03.457Z,13.50
2022-08-22T05:26:38.972Z,19.02
2022-08-22T05:29:09.522Z,16.55
2022-08-22T05:31:49.246Z,17.05
2022-08-22T05:34:26.666Z,14.63
2022-08-22T05:37:04.605Z,16.08
2022-08-22T05:39:40.424Z,13.65
2022-08-22T05:42:15.919Z,15.88
2022-08-22T05:44:43.201Z,18.73
2022-08-22T05:47:23.539Z,17.88
2022-08-22T05:50:05.323Z,14.45
2022-08-22T05:52:40.972Z,18.10
2022-08-22T05:55:25.687Z,16.38
2022-08-22T05:58:11.645Z,17.73
2022-08-22T06:00:45.170Z,12.75
2022-08-22T06:03:27.668Z,13.98
2022-08-22T06:06:03.308Z,16.55
2022-08-22T06:09:16.545Z,16.83
2022-08-22T06:11:55.080Z,18.58
2022-08-22T06:15:20.977Z,16.23
2022-08-22T06:17:55.816Z,15.85
2022-08-22T06:20:34.926Z,13.82
2022-08-22T06:23:05.435Z,14.50
2022-08-22T06:25:40.737Z,14.20
2022-08-22T06:28:16.789Z,15.55
2022-08-22T06:30:47.631Z,16.30
2022-08-22T06:33:23.913Z,13.93
2022-08-22T06:36:20.578Z,15.48
2022-08-22T06:39:16.920Z,15.50
2022-08-22T06:41:59.111Z,16.65
2022-08-22T06:44:50.479Z,14.98
2022-08-22T06:47:33.558Z,16.17
2022-08-22T06:50:15.219Z,22.73
2022-08-22T06:53:26.671Z,14.05
2022-08-22T06:56:07.421Z,20.55
2022-08-22T06:58:45.867Z,18.55
2022-08-22T07:01:25.249Z,15.73
2022-08-22T07:03:59.401Z,15.45
2022-08-22T07:06:41.292Z,14.27
2022-08-22T07:09:19.346Z,17.45
2022-08-22T07:14:18.419Z,19.77
2022-08-22T07:17:02.122Z,16.08
2022-08-22T07:19:38.126Z,16.52
2022-08-22T07:22:30.423Z,22.08
2022-08-22T07:25:14.508Z,13.70
2022-08-22T07:28:08.569Z,18.13
2022-08-22T07:31:02.680Z,15.63
2022-08-22T07:33:50.412Z,14.32
2022-08-22T07:36:46.882Z,22.73
2022-08-22T07:39:30.654Z,18.65
2022-08-22T07:42:17.454Z,17.27
2022-08-22T07:45:08.263Z,19.90
2022-08-22T07:47:52.642Z,20.85
2022-08-22T07:50:30.028Z,21.40
2022-08-22T07:53:16.808Z,16.35
2022-08-22T07:55:49.658Z,18.05
2022-08-22T07:58:19.311Z,15.75
2022-08-22T08:00:50.279Z,19.10
2022-08-22T08:03:23.024Z,17.55
2022-08-22T08:05:50.533Z,19.50
2022-08-22T08:08:43.936Z,18.00
2022-08-22T08:11:16.922Z,20.98
2022-08-22T08:13:52.770Z,19.77
2022-08-22T08:16:25.179Z,18.20
2022-08-22T08:18:57.031Z,17.75
2022-08-22T08:21:53.460Z,19.65
2022-08-22T08:24:31.552Z,19.05
2022-08-22T08:27:32.973Z,19.38
2022-08-22T08:30:15.289Z,17.27
2022-08-22T08:32:49.361Z,16.88
2022-08-22T08:35:25.663Z,16.83
2022-08-22T08:38:08.664Z,14.98
2022-08-22T08:41:00.359Z,14.93
2022-08-22T08:43:40.531Z,18.33
2022-08-22T08:46:25.585Z,17.10
2022-08-22T08:49:30.794Z,14.15
2022-08-22T08:52:25.172Z,15.85
2022-08-22T08:55:19.991Z,13.77
2022-08-22T08:58:40.368Z,14.27
2022-08-22T09:01:16.458Z,11.00
2022-08-22T09:04:54.682Z,14.30
2022-08-22T09:07:44.015Z,10.88
2022-08-22T09:10:47.304Z,15.90
2022-08-22T09:13:40.657Z,15.80
2022-08-22T09:17:04.911Z,11.25
2022-08-22T09:19:55.686Z,6.65
2022-08-22T09:22:50.157Z,9.20
2022-08-22T09:25:38.608Z,8.73
2022-08-22T09:28:40.977Z,6.70
2022-08-22T09:31:44.954Z,6.03
2022-08-22T09:34:29.626Z,9.80
2022-08-22T09:37:17.897Z,9.02
2022-08-22T09:40:06.451Z,8.05
2022-08-22T09:43:01.946Z,8.68
2022-08-22T09:45:40.717Z,10.93
2022-08-22T09:48:39.662Z,6.45
2022-08-22T09:52:15.412Z,8.90
2022-08-22T09:55:08.596Z,10.95
2022-08-22T09:57:50.629Z,9.52
2022-08-22T10:00:34.463Z,12.02
2022-08-22T10:06:20.034Z,8.98
2022-08-22T10:09:03.518Z,9.10
2022-08-22T10:11:45.843Z,11.45
2022-08-22T10:15:00.436Z,13.30
2022-08-22T10:17:41.132Z,7.93
2022-08-22T10:21:09.263Z,8.88
2022-08-22T10:23:52.735Z,10.00
2022-08-22T10:26:50.819Z,8.30
2022-08-22T10:30:05.229Z,11.23
2022-08-22T10:32:53.502Z,8.05
2022-08-22T10:36:07.796Z,6.53
2022-08-22T10:38:53.358Z,7.95
2022-08-22T10:42:00.620Z,9.20
2022-08-22T10:44:42.193Z,6.85
2022-08-22T10:47:21.290Z,8.88
2022-08-22T10:50:10.801Z,8.77
2022-08-22T10:56:16.143Z,7.65
2022-08-22T10:59:18.374Z,8.45
2022-08-22T11:02:27.609Z,7.30
2022-08-22T11:05:14.622Z,10.23
2022-08-22T11:07:50.256Z,6.78
2022-08-22T11:10:30.421Z,8.73
2022-08-22T11:13:29.298Z,8.10
2022-08-22T11:16:13.964Z,6.45
2022-08-22T11:19:15.847Z,11.02
2022-08-22T11:21:51.161Z,7.40
2022-08-22T11:25:02.352Z,5.15
2022-08-22T11:27:55.061Z,8.25
2022-08-22T11:30:59.959Z,6.28
2022-08-22T11:33:47.768Z,12.82
2022-08-22T11:36:31.486Z,10.30
2022-08-22T11:39:03.223Z,7.75
2022-08-22T11:41:59.325Z,5.95
2022-08-22T11:44:50.282Z,8.80
2022-08-22T11:47:27.191Z,10.18
2022-08-22T11:50:23.284Z,5.45
2022-08-22T11:53:15.022Z,6.28
2022-08-22T11:59:07.128Z,7.45
2022-08-22T12:01:55.326Z,8.25
2022-08-22T12:04:47.441Z,7.55
2022-08-22T12:07:21.751Z,8.98
2022-08-22T12:10:04.997Z,8.10
2022-08-22T12:13:06.640Z,4.80
2022-08-22T12:16:07.755Z,5.00
2022-08-22T12:19:06.101Z,7.00
2022-08-22T12:22:16.564Z,7.57
2022-08-22T12:25:33.226Z,9.60
2022-08-22T12:28:30.206Z,6.78
2022-08-22T12:31:34.827Z,9.80
2022-08-22T12:34:55.020Z,6.80
2022-08-22T12:37:36.174Z,6.07
2022-08-22T12:40:57.011Z,6.20
2022-08-22T12:43:44.643Z,6.90
2022-08-22T12:46:16.446Z,7.22
2022-08-22T12:49:10.965Z,6.80
2022-08-22T12:52:14.405Z,5.65
2022-08-22T12:54:52.897Z,6.90
2022-08-22T12:58:08.856Z,6.30
2022-08-22T13:00:49.011Z,8.00
2022-08-22T13:03:35.384Z,6.60
2022-08-22T13:06:33.862Z,6.75
2022-08-22T13:09:11.073Z,10.35
2022-08-22T13:11:43.419Z,7.10
2022-08-22T13:14:21.954Z,6.57
2022-08-22T13:17:10.267Z,7.22
2022-08-22T13:20:03.103Z,8.25
2022-08-22T13:22:35.445Z,8.35
2022-08-22T13:25:26.390Z,7.57
2022-08-22T13:28:03.786Z,5.95
2022-08-22T13:30:40.204Z,9.55
2022-08-22T13:33:11.186Z,5.25
2022-08-22T13:36:00.725Z,7.95
2022-08-22T13:38:46.558Z,9.50
2022-08-22T13:41:24.697Z,5.18
2022-08-22T13:44:16.243Z,6.43
2022-08-22T13:47:04.191Z,6.70
2022-08-22T13:49:41.149Z,8.60
2022-08-22T13:52:38.155Z,8.32
2022-08-22T13:55:29.465Z,8.35
2022-08-22T13:58:11.328Z,6.05
2022-08-22T14:01:15.879Z,4.70
2022-08-22T14:03:54.669Z,8.02
2022-08-22T14:06:46.432Z,6.55
2022-08-22T14:09:54.546Z,7.95
2022-08-22T14:12:56.631Z,4.28
2022-08-22T14:15:32.331Z,6.60
2022-08-22T14:18:30.456Z,7.07
2022-08-22T14:21:48.412Z,6.72
2022-08-22T14:24:29.936Z,7.78
2022-08-22T14:27:06.673Z,5.43
2022-08-22T14:29:56.576Z,8.10
2022-08-22T14:32:25.125Z,8.60
2022-08-22T14:35:23.522Z,7.05
2022-08-22T14:38:46.334Z,7.50
2022-08-22T14:41:56.135Z,7.95
2022-08-22T14:44:31.157Z,4.97
2022-08-22T14:47:04.371Z,8.98
2022-08-22T14:49:58.836Z,7.78
2022-08-22T14:52:50.342Z,5.88
2022-08-22T14:55:28.182Z,6.78
2022-08-22T14:58:03.468Z,6.32
2022-08-22T15:00:39.841Z,4.25
2022-08-22T15:03:37.421Z,5.50
2022-08-22T15:06:07.291Z,5.90
2022-08-22T15:08:50.439Z,5.75
2022-08-22T15:11:17.232Z,5.13
2022-08-22T15:14:13.433Z,7.60
2022-08-22T15:16:50.666Z,6.55
2022-08-22T15:19:23.268Z,4.63
2022-08-22T15:21:51.301Z,6.25
2022-08-22T15:24:20.680Z,9.07
2022-08-22T15:26:55.464Z,7.20
2022-08-22T15:29:31.776Z,7.13
2022-08-22T15:32:03.206Z,6.35
2022-08-22T15:34:41.819Z,7.53
2022-08-22T15:37:18.029Z,10.27
2022-08-22T15:40:08.445Z,7.53
2022-08-22T15:42:48.839Z,5.05
2022-08-22T15:45:39.525Z,8.60
2022-08-22T15:48:26.567Z,6.10
2022-08-22T15:51:10.171Z,7.25
2022-08-22T15:54:24.937Z,6.88
2022-08-22T15:59:54.114Z,8.13
2022-08-22T16:05:11.575Z,9.38
2022-08-22T16:08:02.692Z,7.95
2022-08-22T16:10:56.041Z,6.22
2022-08-22T16:13:29.565Z,9.13
2022-08-22T16:16:08.316Z,6.57
2022-08-22T16:18:39.226Z,6.80
2022-08-22T16:21:13.252Z,3.80
2022-08-22T16:23:58.088Z,6.32
2022-08-22T16:26:24.818Z,6.63
2022-08-22T16:29:07.051Z,8.32
2022-08-22T16:31:45.999Z,10.60
2022-08-22T16:34:16.162Z,6.63
2022-08-22T16:37:23.393Z,7.00
2022-08-22T16:40:13.089Z,5.30
2022-08-22T16:42:46.776Z,5.72
2022-08-22T16:45:36.041Z,10.75
2022-08-22T16:48:33.557Z,7.55
2022-08-22T16:51:18.703Z,7.22
2022-08-22T16:54:12.240Z,6.63
2022-08-22T16:56:53.569Z,7.15
2022-08-22T16:59:48.815Z,6.95
2022-08-22T17:02:43.632Z,5.63
2022-08-22T17:05:32.315Z,4.50
2022-08-22T17:08:11.843Z,5.22
2022-08-22T17:11:01.631Z,6.13
2022-08-22T17:13:48.977Z,5.68
2022-08-22T17:17:01.466Z,6.53
2022-08-22T17:19:39.259Z,5.63
2022-08-22T17:22:22.603Z,7.43
2022-08-22T17:25:33.994Z,7.30
2022-08-22T17:28:09.842Z,5.65
2022-08-22T17:31:10.542Z,7.20
2022-08-22T17:34:18.566Z,7.57
2022-08-22T17:36:49.972Z,6.10
2022-08-22T17:39:55.933Z,6.93
2022-08-22T17:42:44.217Z,6.50
2022-08-22T17:45:47.042Z,5.70
2022-08-22T17:48:25.334Z,6.30
2022-08-22T17:51:19.266Z,6.32
2022-08-22T17:54:21.520Z,6.35
2022-08-22T17:57:55.584Z,8.20
2022-08-22T18:03:32.309Z,6.40
2022-08-22T18:06:24.248Z,5.30
2022-08-22T18:09:13.628Z,5.40
2022-08-22T18:11:52.067Z,5.13
2022-08-22T18:14:46.485Z,8.63
2022-08-22T18:17:36.755Z,4.95
2022-08-22T18:20:21.197Z,6.55
2022-08-22T18:23:01.632Z,7.32
2022-08-22T18:25:40.747Z,5.78
2022-08-22T18:31:38.741Z,4.93
2022-08-22T18:34:24.560Z,6.22
2022-08-22T18:37:05.546Z,6.40
2022-08-22T18:39:50.077Z,8.00
2022-08-22T18:42:50.394Z,7.60
2022-08-22T18:45:46.809Z,6.72
2022-08-22T18:48:54.421Z,8.07
2022-08-22T18:51:38.680Z,9.30
2022-08-22T18:54:05.578Z,9.00
2022-08-22T18:57:22.716Z,7.47
2022-08-22T19:00:16.489Z,7.18
2022-08-22T19:02:57.668Z,9.65
2022-08-22T19:05:27.153Z,5.60
2022-08-22T19:07:59.986Z,8.25
2022-08-22T19:11:03.342Z,9.57
2022-08-22T19:14:08.626Z,7.28
2022-08-22T19:17:23.141Z,6.90
2022-08-22T19:20:14.634Z,8.00
2022-08-22T19:22:42.774Z,9.00
2022-08-22T19:25:28.555Z,5.28
2022-08-22T19:28:10.386Z,7.85
2022-08-22T19:31:14.930Z,8.02
2022-08-22T19:34:08.735Z,9.10
2022-08-22T19:36:36.176Z,8.27
2022-08-22T19:39:41.538Z,7.30
2022-08-22T19:42:27.786Z,6.85
2022-08-22T19:45:06.594Z,9.90
2022-08-22T19:47:43.457Z,6.20
2022-08-22T19:50:28.227Z,8.98
2022-08-22T19:53:25.069Z,7.05
2022-08-22T19:56:13.583Z,11.23
2022-08-22T19:58:59.491Z,9.05
2022-08-22T20:01:44.449Z,7.65
2022-08-22T20:04:40.721Z,7.60
2022-08-22T20:07:26.950Z,9.90
2022-08-22T20:10:20.724Z,9.90
2022-08-22T20:13:07.809Z,12.05
2022-08-22T20:16:19.037Z,11.02
2022-08-22T20:19:07.650Z,10.02
2022-08-22T20:22:00.021Z,9.55
2022-08-22T20:24:40.308Z,8.45
2022-08-22T20:27:27.803Z,8.55
2022-08-22T20:30:25.631Z,8.32
2022-08-22T20:32:59.670Z,7.32
2022-08-22T20:35:41.175Z,7.18
2022-08-22T20:38:15.621Z,6.82
2022-08-22T20:41:20.953Z,8.73
2022-08-22T20:43:58.436Z,8.02
2022-08-22T20:46:53.666Z,8.73
2022-08-22T20:49:32.489Z,7.20
2022-08-22T20:52:08.533Z,7.88
2022-08-22T20:54:40.855Z,9.35
2022-08-22T20:57:21.536Z,8.40
2022-08-22T20:59:51.402Z,10.60
2022-08-22T21:02:28.689Z,9.70
2022-08-22T21:05:11.221Z,5.75
2022-08-22T21:07:49.330Z,9.15
2022-08-22T21:10:46.367Z,8.45
2022-08-22T21:13:20.426Z,6.00
2022-08-22T21:16:10.928Z,9.15
2022-08-22T21:21:29.609Z,7.88
2022-08-22T21:24:08.067Z,10.23
2022-08-22T21:26:45.192Z,10.95
2022-08-22T21:29:11.955Z,6.70
2022-08-22T21:31:46.334Z,9.30
2022-08-22T21:34:24.349Z,10.30
2022-08-22T21:39:28.390Z,6.35
2022-08-22T21:42:00.991Z,6.40
2022-08-22T21:44:30.728Z,5.97
2022-08-22T21:47:30.873Z,9.30
2022-08-22T21:50:25.707Z,10.05
2022-08-22T21:52:55.287Z,8.98
2022-08-22T21:55:26.780Z,7.85
2022-08-22T21:58:11.991Z,8.23
2022-08-22T22:00:49.536Z,8.95
2022-08-22T22:03:25.474Z,10.48
2022-08-22T22:05:57.308Z,10.13
2022-08-22T22:08:29.167Z,10.50
2022-08-22T22:11:04.735Z,8.00
2022-08-22T22:13:35.317Z,7.60
2022-08-22T22:16:03.030Z,10.25
2022-08-22T22:18:35.621Z,11.77
2022-08-22T22:21:02.745Z,12.93
2022-08-22T22:23:29.942Z,11.57
2022-08-22T22:26:01.089Z,8.77
2022-08-22T22:28:40.148Z,6.93
2022-08-22T22:31:07.905Z,9.05
2022-08-22T22:33:39.600Z,7.85
2022-08-22T22:38:41.059Z,8.55
2022-08-22T22:41:08.459Z,9.13
2022-08-22T22:43:35.378Z,11.00
2022-08-22T22:46:02.330Z,11.23
2022-08-22T22:48:29.403Z,11.73
2022-08-22T22:50:56.257Z,8.80
2022-08-22T22:53:38.100Z,8.52
2022-08-22T22:56:09.586Z,11.90
2022-08-22T22:58:38.465Z,10.90
2022-08-22T23:01:23.507Z,8.52
2022-08-22T23:03:56.287Z,11.80
2022-08-22T23:06:26.575Z,15.88
2022-08-22T23:08:54.413Z,14.57
2022-08-22T23:11:26.901Z,10.82
2022-08-22T23:13:54.664Z,12.95
2022-08-22T23:16:27.277Z,10.57
2022-08-22T23:18:55.318Z,12.80
2022-08-22T23:21:30.093Z,10.25
2022-08-22T23:24:00.666Z,12.13
2022-08-22T23:26:28.968Z,12.75
2022-08-22T23:28:57.390Z,12.65
2022-08-22T23:31:29.430Z,13.65
2022-08-22T23:34:00.942Z,12.18
2022-08-22T23:36:29.609Z,13.93
2022-08-22T23:38:57.127Z,10.10
2022-08-22T23:41:24.126Z,14.15
2022-08-22T23:43:54.500Z,14.05
2022-08-22T23:46:25.742Z,11.00
2022-08-22T23:48:53.350Z,10.63
2022-08-22T23:51:23.884Z,14.38
2022-08-22T23:53:57.624Z,9.45
2022-08-22T23:56:53.613Z,12.75
2022-08-22T23:59:30.647Z,13.75
